CheckWX is a tool to help pilots better visualize weather data.  It is not intended as a substitute for an official pre-flight weather briefing.

22:57:00 UTC

4I3 METAR
Knox County Airport
Mount Vernon, Ohio, USA
Current

22 mins ago

K4I3 222235Z AUTO 28008G15KT 10SM SCT055 BKN070 BKN080 25/19 A3006 RMK AO2
Observed
May-22 @ 22:35 UTC
Wind
  • 280° at 8 KTS
  • Gusting to 15 KTS
Visibility
10 SM
Flight Rules
VFR
Cloud Levels
  • Scattered at 5,500' AGL
  • Broken at 7,000' AGL
  • Broken at 8,000' AGL
Temperature
25°C / 77°F
Dewpoint
19°C / 66°F
Humidity
69%
Altimeter
30.06" Hg
Pressure
1017.92 hPa
Previous

42 mins ago

K4I3 222215Z AUTO 25004KT 10SM SCT055 SCT065 26/19 A3005 RMK AO2
Observed
May-22 @ 22:15 UTC
Wind
  • 250° at 4 KTS
Visibility
10 SM
Flight Rules
VFR
Cloud Levels
  • Scattered at 5,500' AGL
  • Scattered at 6,500' AGL
Temperature
26°C / 79°F
Dewpoint
19°C / 66°F
Humidity
65%
Altimeter
30.05" Hg
Pressure
1017.62 hPa
Previous

1 hour ago

K4I3 222155Z AUTO 20005G14KT 10SM SCT050 SCT065 SCT075 27/19 A3004 RMK AO2
Observed
May-22 @ 21:55 UTC
Wind
  • 200° at 5 KTS
  • Gusting to 14 KTS
Visibility
10 SM
Flight Rules
VFR
Cloud Levels
  • Scattered at 5,000' AGL
  • Scattered at 6,500' AGL
  • Scattered at 7,500' AGL
Temperature
27°C / 81°F
Dewpoint
19°C / 66°F
Heat Index
28°C / 83°F
Humidity
62%
Altimeter
30.04" Hg
Pressure
1017.32 hPa